sensor_id;sensor_type;location;lat;lon;timestamp;P1;durP1;ratioP1;P2;durP2;ratioP2
22164;SDS011;11248;52.512;13.520;2023-08-31T00:02:18;2.50;;;2.30;;
22164;SDS011;11248;52.512;13.520;2023-08-31T00:04:44;2.50;;;2.30;;
22164;SDS011;11248;52.512;13.520;2023-08-31T00:07:10;2.30;;;2.10;;
22164;SDS011;11248;52.512;13.520;2023-08-31T00:09:36;2.38;;;2.00;;
22164;SDS011;11248;52.512;13.520;2023-08-31T00:12:02;2.75;;;2.30;;
22164;SDS011;11248;52.512;13.520;2023-08-31T00:14:28;2.75;;;2.30;;
22164;SDS011;11248;52.512;13.520;2023-08-31T00:16:54;2.30;;;2.10;;
22164;SDS011;11248;52.512;13.520;2023-08-31T00:19:22;2.45;;;2.10;;
22164;SDS011;11248;52.512;13.520;2023-08-31T00:21:48;2.35;;;2.15;;
22164;SDS011;11248;52.512;13.520;2023-08-31T00:24:14;2.78;;;2.38;;
22164;SDS011;11248;52.512;13.520;2023-08-31T00:26:40;4.20;;;2.40;;
22164;SDS011;11248;52.512;13.520;2023-08-31T00:29:08;2.47;;;2.25;;
22164;SDS011;11248;52.512;13.520;2023-08-31T00:31:35;2.75;;;2.33;;
22164;SDS011;11248;52.512;13.520;2023-08-31T00:34:01;2.40;;;2.20;;
22164;SDS011;11248;52.512;13.520;2023-08-31T00:36:29;2.10;;;1.90;;
22164;SDS011;11248;52.512;13.520;2023-08-31T00:38:55;2.45;;;2.10;;
22164;SDS011;11248;52.512;13.520;2023-08-31T00:41:22;2.35;;;1.95;;
22164;SDS011;11248;52.512;13.520;2023-08-31T00:43:48;2.10;;;1.90;;
22164;SDS011;11248;52.512;13.520;2023-08-31T00:46:14;4.20;;;1.83;;
22164;SDS011;11248;52.512;13.520;2023-08-31T00:48:40;2.05;;;1.80;;
22164;SDS011;11248;52.512;13.520;2023-08-31T00:51:06;2.80;;;2.50;;
22164;SDS011;11248;52.512;13.520;2023-08-31T00:53:32;3.63;;;2.17;;
22164;SDS011;11248;52.512;13.520;2023-08-31T00:56:00;2.67;;;2.47;;
22164;SDS011;11248;52.512;13.520;2023-08-31T00:58:25;2.58;;;2.25;;
22164;SDS011;11248;52.512;13.520;2023-08-31T01:00:58;2.50;;;2.10;;
22164;SDS011;11248;52.512;13.520;2023-08-31T01:06:02;2.50;;;2.30;;
22164;SDS011;11248;52.512;13.520;2023-08-31T01:08:43;2.65;;;2.20;;
22164;SDS011;11248;52.512;13.520;2023-08-31T01:11:34;2.85;;;2.25;;
22164;SDS011;11248;52.512;13.520;2023-08-31T01:14:12;3.83;;;2.55;;
22164;SDS011;11248;52.512;13.520;2023-08-31T01:16:40;4.10;;;2.60;;
22164;SDS011;11248;52.512;13.520;2023-08-31T01:19:11;3.63;;;2.88;;
22164;SDS011;11248;52.512;13.520;2023-08-31T01:21:42;3.20;;;2.90;;
22164;SDS011;11248;52.512;13.520;2023-08-31T01:24:10;3.00;;;2.55;;
22164;SDS011;11248;52.512;13.520;2023-08-31T01:26:36;3.22;;;2.65;;
22164;SDS011;11248;52.512;13.520;2023-08-31T01:29:03;3.22;;;2.80;;
22164;SDS011;11248;52.512;13.520;2023-08-31T01:31:29;3.20;;;2.72;;
22164;SDS011;11248;52.512;13.520;2023-08-31T01:33:55;4.45;;;3.00;;
22164;SDS011;11248;52.512;13.520;2023-08-31T01:36:28;2.95;;;2.42;;
22164;SDS011;11248;52.512;13.520;2023-08-31T01:38:57;3.88;;;2.90;;
22164;SDS011;11248;52.512;13.520;2023-08-31T01:41:24;3.60;;;2.92;;
22164;SDS011;11248;52.512;13.520;2023-08-31T01:43:51;2.72;;;2.28;;
22164;SDS011;11248;52.512;13.520;2023-08-31T01:46:17;2.40;;;2.10;;
22164;SDS011;11248;52.512;13.520;2023-08-31T01:48:43;2.92;;;2.40;;
22164;SDS011;11248;52.512;13.520;2023-08-31T01:51:09;2.58;;;2.20;;
22164;SDS011;11248;52.512;13.520;2023-08-31T01:53:36;2.88;;;2.58;;
22164;SDS011;11248;52.512;13.520;2023-08-31T01:56:02;2.67;;;2.30;;
22164;SDS011;11248;52.512;13.520;2023-08-31T01:58:29;3.08;;;1.95;;
22164;SDS011;11248;52.512;13.520;2023-08-31T02:00:55;2.35;;;2.10;;
22164;SDS011;11248;52.512;13.520;2023-08-31T02:03:21;2.25;;;2.05;;
22164;SDS011;11248;52.512;13.520;2023-08-31T02:05:47;2.45;;;2.00;;
22164;SDS011;11248;52.512;13.520;2023-08-31T02:08:13;2.10;;;1.90;;
22164;SDS011;11248;52.512;13.520;2023-08-31T02:10:42;2.40;;;2.20;;
22164;SDS011;11248;52.512;13.520;2023-08-31T02:13:08;3.03;;;2.22;;
22164;SDS011;11248;52.512;13.520;2023-08-31T02:15:37;2.20;;;1.90;;
22164;SDS011;11248;52.512;13.520;2023-08-31T02:18:03;2.28;;;1.83;;
22164;SDS011;11248;52.512;13.520;2023-08-31T02:20:29;2.28;;;1.98;;
22164;SDS011;11248;52.512;13.520;2023-08-31T02:22:55;2.15;;;1.95;;
22164;SDS011;11248;52.512;13.520;2023-08-31T02:25:21;2.22;;;1.65;;
22164;SDS011;11248;52.512;13.520;2023-08-31T02:27:47;2.65;;;1.95;;
22164;SDS011;11248;52.512;13.520;2023-08-31T02:30:13;2.85;;;2.00;;
22164;SDS011;11248;52.512;13.520;2023-08-31T02:32:39;2.20;;;2.00;;
22164;SDS011;11248;52.512;13.520;2023-08-31T02:35:05;1.80;;;1.70;;
22164;SDS011;11248;52.512;13.520;2023-08-31T02:37:32;2.53;;;1.70;;
22164;SDS011;11248;52.512;13.520;2023-08-31T02:39:58;1.42;;;1.33;;
22164;SDS011;11248;52.512;13.520;2023-08-31T02:42:23;1.55;;;1.42;;
22164;SDS011;11248;52.512;13.520;2023-08-31T02:44:51;1.98;;;1.45;;
22164;SDS011;11248;52.512;13.520;2023-08-31T02:47:18;1.73;;;1.63;;
22164;SDS011;11248;52.512;13.520;2023-08-31T02:49:44;2.47;;;1.75;;
22164;SDS011;11248;52.512;13.520;2023-08-31T02:52:12;1.40;;;1.30;;
22164;SDS011;11248;52.512;13.520;2023-08-31T02:54:38;2.05;;;1.60;;
22164;SDS011;11248;52.512;13.520;2023-08-31T02:57:04;1.45;;;1.35;;
22164;SDS011;11248;52.512;13.520;2023-08-31T02:59:30;1.95;;;1.63;;
22164;SDS011;11248;52.512;13.520;2023-08-31T03:02:00;1.50;;;1.30;;
22164;SDS011;11248;52.512;13.520;2023-08-31T03:04:26;1.65;;;1.20;;
22164;SDS011;11248;52.512;13.520;2023-08-31T03:06:52;1.75;;;1.42;;
22164;SDS011;11248;52.512;13.520;2023-08-31T03:09:18;1.90;;;1.60;;
22164;SDS011;11248;52.512;13.520;2023-08-31T03:11:45;2.03;;;1.30;;
22164;SDS011;11248;52.512;13.520;2023-08-31T03:14:11;2.25;;;1.65;;
22164;SDS011;11248;52.512;13.520;2023-08-31T03:16:37;1.80;;;1.60;;
22164;SDS011;11248;52.512;13.520;2023-08-31T03:19:03;2.75;;;1.90;;
22164;SDS011;11248;52.512;13.520;2023-08-31T03:21:29;2.60;;;2.00;;
22164;SDS011;11248;52.512;13.520;2023-08-31T03:23:54;1.70;;;1.40;;
22164;SDS011;11248;52.512;13.520;2023-08-31T03:26:20;2.17;;;1.55;;
22164;SDS011;11248;52.512;13.520;2023-08-31T03:28:46;2.17;;;1.70;;
22164;SDS011;11248;52.512;13.520;2023-08-31T03:31:12;1.60;;;1.50;;
22164;SDS011;11248;52.512;13.520;2023-08-31T03:33:38;1.80;;;1.50;;
22164;SDS011;11248;52.512;13.520;2023-08-31T03:36:04;2.03;;;1.70;;
22164;SDS011;11248;52.512;13.520;2023-08-31T03:38:33;1.88;;;1.60;;
22164;SDS011;11248;52.512;13.520;2023-08-31T03:41:03;2.83;;;1.83;;
22164;SDS011;11248;52.512;13.520;2023-08-31T03:43:29;3.53;;;2.15;;
22164;SDS011;11248;52.512;13.520;2023-08-31T03:45:58;2.00;;;1.63;;
22164;SDS011;11248;52.512;13.520;2023-08-31T03:48:24;1.48;;;1.38;;
22164;SDS011;11248;52.512;13.520;2023-08-31T03:50:53;2.53;;;1.65;;
22164;SDS011;11248;52.512;13.520;2023-08-31T03:53:19;2.17;;;1.75;;
22164;SDS011;11248;52.512;13.520;2023-08-31T03:55:45;1.92;;;1.73;;
22164;SDS011;11248;52.512;13.520;2023-08-31T03:58:11;2.10;;;1.50;;
22164;SDS011;11248;52.512;13.520;2023-08-31T04:00:37;2.60;;;1.77;;
22164;SDS011;11248;52.512;13.520;2023-08-31T04:03:04;1.85;;;1.63;;
22164;SDS011;11248;52.512;13.520;2023-08-31T04:05:33;2.78;;;1.92;;
22164;SDS011;11248;52.512;13.520;2023-08-31T04:07:59;1.88;;;1.52;;
22164;SDS011;11248;52.512;13.520;2023-08-31T04:10:25;2.55;;;1.92;;
22164;SDS011;11248;52.512;13.520;2023-08-31T04:12:51;3.33;;;1.88;;
22164;SDS011;11248;52.512;13.520;2023-08-31T04:15:17;1.95;;;1.75;;
22164;SDS011;11248;52.512;13.520;2023-08-31T04:17:43;3.00;;;2.15;;
22164;SDS011;11248;52.512;13.520;2023-08-31T04:20:09;2.90;;;2.45;;
22164;SDS011;11248;52.512;13.520;2023-08-31T04:22:36;2.40;;;2.20;;
22164;SDS011;11248;52.512;13.520;2023-08-31T04:25:02;3.20;;;2.55;;
22164;SDS011;11248;52.512;13.520;2023-08-31T04:27:28;3.25;;;2.90;;
22164;SDS011;11248;52.512;13.520;2023-08-31T04:29:56;2.40;;;2.20;;
22164;SDS011;11248;52.512;13.520;2023-08-31T04:32:22;3.53;;;2.60;;
22164;SDS011;11248;52.512;13.520;2023-08-31T04:34:48;2.90;;;2.35;;
22164;SDS011;11248;52.512;13.520;2023-08-31T04:37:14;4.72;;;3.03;;
22164;SDS011;11248;52.512;13.520;2023-08-31T04:39:41;5.45;;;3.28;;
22164;SDS011;11248;52.512;13.520;2023-08-31T04:42:07;5.25;;;3.47;;
22164;SDS011;11248;52.512;13.520;2023-08-31T04:44:33;4.97;;;3.53;;
22164;SDS011;11248;52.512;13.520;2023-08-31T04:47:00;3.40;;;2.85;;
22164;SDS011;11248;52.512;13.520;2023-08-31T04:49:26;4.93;;;3.63;;
22164;SDS011;11248;52.512;13.520;2023-08-31T04:51:52;4.32;;;3.47;;
22164;SDS011;11248;52.512;13.520;2023-08-31T04:54:18;4.45;;;3.40;;
22164;SDS011;11248;52.512;13.520;2023-08-31T04:56:44;4.63;;;3.88;;
22164;SDS011;11248;52.512;13.520;2023-08-31T04:59:10;4.70;;;3.63;;
22164;SDS011;11248;52.512;13.520;2023-08-31T05:01:36;3.85;;;3.45;;
22164;SDS011;11248;52.512;13.520;2023-08-31T05:04:02;5.22;;;4.00;;
22164;SDS011;11248;52.512;13.520;2023-08-31T05:06:28;5.50;;;4.15;;
22164;SDS011;11248;52.512;13.520;2023-08-31T05:08:54;5.43;;;4.03;;
22164;SDS011;11248;52.512;13.520;2023-08-31T05:11:21;4.43;;;3.85;;
22164;SDS011;11248;52.512;13.520;2023-08-31T05:13:47;6.20;;;4.22;;
22164;SDS011;11248;52.512;13.520;2023-08-31T05:16:13;7.47;;;4.40;;
22164;SDS011;11248;52.512;13.520;2023-08-31T05:18:39;7.40;;;4.80;;
22164;SDS011;11248;52.512;13.520;2023-08-31T05:21:05;6.20;;;4.20;;
22164;SDS011;11248;52.512;13.520;2023-08-31T05:23:31;10.20;;;3.72;;
22164;SDS011;11248;52.512;13.520;2023-08-31T05:25:57;5.05;;;3.97;;
22164;SDS011;11248;52.512;13.520;2023-08-31T05:28:24;6.60;;;4.38;;
22164;SDS011;11248;52.512;13.520;2023-08-31T05:30:50;7.75;;;5.07;;
22164;SDS011;11248;52.512;13.520;2023-08-31T05:33:17;5.75;;;3.90;;
22164;SDS011;11248;52.512;13.520;2023-08-31T05:35:43;5.57;;;3.88;;
22164;SDS011;11248;52.512;13.520;2023-08-31T05:38:09;6.45;;;4.35;;
22164;SDS011;11248;52.512;13.520;2023-08-31T05:40:35;4.80;;;3.78;;
22164;SDS011;11248;52.512;13.520;2023-08-31T05:43:01;6.72;;;4.05;;
22164;SDS011;11248;52.512;13.520;2023-08-31T05:45:29;5.53;;;3.78;;
22164;SDS011;11248;52.512;13.520;2023-08-31T05:47:57;4.80;;;3.75;;
22164;SDS011;11248;52.512;13.520;2023-08-31T05:50:23;5.57;;;4.32;;
22164;SDS011;11248;52.512;13.520;2023-08-31T05:52:48;7.97;;;4.80;;
22164;SDS011;11248;52.512;13.520;2023-08-31T05:55:14;7.03;;;5.35;;
22164;SDS011;11248;52.512;13.520;2023-08-31T05:57:40;7.40;;;5.00;;
22164;SDS011;11248;52.512;13.520;2023-08-31T06:00:06;7.05;;;5.13;;
22164;SDS011;11248;52.512;13.520;2023-08-31T06:02:33;5.68;;;4.75;;
22164;SDS011;11248;52.512;13.520;2023-08-31T06:05:00;5.55;;;4.35;;
22164;SDS011;11248;52.512;13.520;2023-08-31T06:07:26;6.25;;;4.32;;
22164;SDS011;11248;52.512;13.520;2023-08-31T06:09:54;4.22;;;3.70;;
22164;SDS011;11248;52.512;13.520;2023-08-31T06:12:19;5.30;;;4.00;;
22164;SDS011;11248;52.512;13.520;2023-08-31T06:14:45;6.15;;;4.55;;
22164;SDS011;11248;52.512;13.520;2023-08-31T06:17:11;8.55;;;5.00;;
22164;SDS011;11248;52.512;13.520;2023-08-31T06:19:38;5.63;;;3.45;;
22164;SDS011;11248;52.512;13.520;2023-08-31T06:22:04;9.88;;;4.25;;
22164;SDS011;11248;52.512;13.520;2023-08-31T06:24:30;6.88;;;4.38;;
22164;SDS011;11248;52.512;13.520;2023-08-31T06:26:57;8.77;;;5.47;;
22164;SDS011;11248;52.512;13.520;2023-08-31T06:29:23;7.10;;;3.88;;
22164;SDS011;11248;52.512;13.520;2023-08-31T06:31:49;6.82;;;4.82;;
22164;SDS011;11248;52.512;13.520;2023-08-31T06:34:15;6.38;;;4.63;;
22164;SDS011;11248;52.512;13.520;2023-08-31T06:36:41;7.03;;;4.55;;
22164;SDS011;11248;52.512;13.520;2023-08-31T06:39:07;10.30;;;4.55;;
22164;SDS011;11248;52.512;13.520;2023-08-31T06:41:33;6.63;;;4.20;;
22164;SDS011;11248;52.512;13.520;2023-08-31T06:43:58;4.07;;;3.60;;
22164;SDS011;11248;52.512;13.520;2023-08-31T06:46:24;8.40;;;4.20;;
22164;SDS011;11248;52.512;13.520;2023-08-31T06:48:50;5.45;;;3.92;;
22164;SDS011;11248;52.512;13.520;2023-08-31T06:51:17;4.90;;;4.03;;
22164;SDS011;11248;52.512;13.520;2023-08-31T06:53:43;5.97;;;4.13;;
22164;SDS011;11248;52.512;13.520;2023-08-31T06:56:09;4.38;;;3.60;;
22164;SDS011;11248;52.512;13.520;2023-08-31T06:58:35;5.68;;;4.25;;
22164;SDS011;11248;52.512;13.520;2023-08-31T07:01:05;6.55;;;3.92;;
22164;SDS011;11248;52.512;13.520;2023-08-31T07:03:31;4.05;;;3.55;;
22164;SDS011;11248;52.512;13.520;2023-08-31T07:05:57;5.55;;;3.83;;
22164;SDS011;11248;52.512;13.520;2023-08-31T07:08:23;4.80;;;3.15;;
22164;SDS011;11248;52.512;13.520;2023-08-31T07:10:52;5.25;;;3.70;;
22164;SDS011;11248;52.512;13.520;2023-08-31T07:13:18;5.00;;;3.95;;
22164;SDS011;11248;52.512;13.520;2023-08-31T07:15:44;4.35;;;3.35;;
22164;SDS011;11248;52.512;13.520;2023-08-31T07:18:12;3.88;;;3.47;;
22164;SDS011;11248;52.512;13.520;2023-08-31T07:20:38;5.35;;;3.80;;
22164;SDS011;11248;52.512;13.520;2023-08-31T07:23:04;4.53;;;3.45;;
22164;SDS011;11248;52.512;13.520;2023-08-31T07:25:30;4.15;;;2.85;;
22164;SDS011;11248;52.512;13.520;2023-08-31T07:27:55;5.45;;;3.45;;
22164;SDS011;11248;52.512;13.520;2023-08-31T07:30:21;5.10;;;3.67;;
22164;SDS011;11248;52.512;13.520;2023-08-31T07:32:47;6.88;;;2.88;;
22164;SDS011;11248;52.512;13.520;2023-08-31T07:35:13;6.47;;;2.95;;
22164;SDS011;11248;52.512;13.520;2023-08-31T07:37:39;4.32;;;2.58;;
22164;SDS011;11248;52.512;13.520;2023-08-31T07:40:06;4.85;;;2.53;;
22164;SDS011;11248;52.512;13.520;2023-08-31T07:42:34;4.80;;;2.83;;
22164;SDS011;11248;52.512;13.520;2023-08-31T07:45:00;5.70;;;2.50;;
22164;SDS011;11248;52.512;13.520;2023-08-31T07:47:26;5.40;;;2.75;;
22164;SDS011;11248;52.512;13.520;2023-08-31T07:49:52;7.15;;;2.75;;
22164;SDS011;11248;52.512;13.520;2023-08-31T07:52:19;4.60;;;2.60;;
22164;SDS011;11248;52.512;13.520;2023-08-31T07:54:44;4.75;;;2.55;;
22164;SDS011;11248;52.512;13.520;2023-08-31T07:57:10;4.22;;;2.33;;
22164;SDS011;11248;52.512;13.520;2023-08-31T07:59:36;5.18;;;3.00;;
22164;SDS011;11248;52.512;13.520;2023-08-31T08:02:04;5.38;;;3.08;;
22164;SDS011;11248;52.512;13.520;2023-08-31T08:04:30;4.28;;;2.88;;
22164;SDS011;11248;52.512;13.520;2023-08-31T08:06:56;3.72;;;2.65;;
22164;SDS011;11248;52.512;13.520;2023-08-31T08:09:22;3.60;;;2.08;;
22164;SDS011;11248;52.512;13.520;2023-08-31T08:11:48;5.85;;;2.78;;
22164;SDS011;11248;52.512;13.520;2023-08-31T08:14:14;4.88;;;2.47;;
22164;SDS011;11248;52.512;13.520;2023-08-31T08:16:40;6.00;;;2.70;;
22164;SDS011;11248;52.512;13.520;2023-08-31T08:19:06;4.63;;;2.67;;
22164;SDS011;11248;52.512;13.520;2023-08-31T08:21:32;3.20;;;2.20;;
22164;SDS011;11248;52.512;13.520;2023-08-31T08:23:58;3.45;;;2.30;;
22164;SDS011;11248;52.512;13.520;2023-08-31T08:26:24;4.82;;;1.85;;
22164;SDS011;11248;52.512;13.520;2023-08-31T08:28:50;2.58;;;2.08;;
22164;SDS011;11248;52.512;13.520;2023-08-31T08:31:16;4.03;;;1.73;;
22164;SDS011;11248;52.512;13.520;2023-08-31T08:33:42;3.25;;;2.17;;
22164;SDS011;11248;52.512;13.520;2023-08-31T08:36:08;6.15;;;1.92;;
22164;SDS011;11248;52.512;13.520;2023-08-31T08:38:34;3.67;;;2.13;;
22164;SDS011;11248;52.512;13.520;2023-08-31T08:41:04;3.50;;;1.73;;
22164;SDS011;11248;52.512;13.520;2023-08-31T08:43:30;3.83;;;1.85;;
22164;SDS011;11248;52.512;13.520;2023-08-31T08:45:56;4.25;;;2.05;;
22164;SDS011;11248;52.512;13.520;2023-08-31T08:48:23;4.97;;;1.65;;
22164;SDS011;11248;52.512;13.520;2023-08-31T08:50:49;3.58;;;2.00;;
22164;SDS011;11248;52.512;13.520;2023-08-31T08:53:16;4.32;;;1.65;;
22164;SDS011;11248;52.512;13.520;2023-08-31T08:55:42;4.10;;;1.73;;
22164;SDS011;11248;52.512;13.520;2023-08-31T08:58:07;4.63;;;2.03;;
22164;SDS011;11248;52.512;13.520;2023-08-31T09:00:35;3.17;;;1.92;;
22164;SDS011;11248;52.512;13.520;2023-08-31T09:03:00;3.60;;;1.33;;
22164;SDS011;11248;52.512;13.520;2023-08-31T09:05:30;4.07;;;1.67;;
22164;SDS011;11248;52.512;13.520;2023-08-31T09:08:00;4.45;;;1.65;;
22164;SDS011;11248;52.512;13.520;2023-08-31T09:10:33;3.30;;;1.48;;
22164;SDS011;11248;52.512;13.520;2023-08-31T09:13:00;2.63;;;1.50;;
22164;SDS011;11248;52.512;13.520;2023-08-31T09:15:26;2.60;;;1.25;;
22164;SDS011;11248;52.512;13.520;2023-08-31T09:18:01;2.28;;;1.27;;
22164;SDS011;11248;52.512;13.520;2023-08-31T09:20:27;3.80;;;1.55;;
22164;SDS011;11248;52.512;13.520;2023-08-31T09:22:55;4.93;;;1.42;;
22164;SDS011;11248;52.512;13.520;2023-08-31T09:25:21;2.08;;;1.20;;
22164;SDS011;11248;52.512;13.520;2023-08-31T09:27:48;3.05;;;1.40;;
22164;SDS011;11248;52.512;13.520;2023-08-31T09:30:14;3.03;;;1.15;;
22164;SDS011;11248;52.512;13.520;2023-08-31T09:32:40;1.33;;;1.13;;
22164;SDS011;11248;52.512;13.520;2023-08-31T09:35:10;4.00;;;1.40;;
22164;SDS011;11248;52.512;13.520;2023-08-31T09:37:36;1.75;;;1.17;;
22164;SDS011;11248;52.512;13.520;2023-08-31T09:40:02;3.15;;;1.40;;
22164;SDS011;11248;52.512;13.520;2023-08-31T09:42:38;2.67;;;1.10;;
22164;SDS011;11248;52.512;13.520;2023-08-31T09:45:04;3.50;;;1.38;;
22164;SDS011;11248;52.512;13.520;2023-08-31T09:47:30;4.45;;;1.40;;
22164;SDS011;11248;52.512;13.520;2023-08-31T09:49:56;2.60;;;1.30;;
22164;SDS011;11248;52.512;13.520;2023-08-31T09:52:22;1.85;;;1.20;;
22164;SDS011;11248;52.512;13.520;2023-08-31T09:54:49;2.47;;;1.40;;
22164;SDS011;11248;52.512;13.520;2023-08-31T09:57:16;4.57;;;1.27;;
22164;SDS011;11248;52.512;13.520;2023-08-31T09:59:42;3.50;;;1.33;;
22164;SDS011;11248;52.512;13.520;2023-08-31T10:02:10;3.28;;;1.38;;
22164;SDS011;11248;52.512;13.520;2023-08-31T10:04:37;2.05;;;1.10;;
22164;SDS011;11248;52.512;13.520;2023-08-31T10:07:04;2.97;;;1.30;;
22164;SDS011;11248;52.512;13.520;2023-08-31T10:09:30;2.63;;;1.25;;
22164;SDS011;11248;52.512;13.520;2023-08-31T10:11:56;3.67;;;1.52;;
22164;SDS011;11248;52.512;13.520;2023-08-31T10:14:23;4.30;;;1.20;;
22164;SDS011;11248;52.512;13.520;2023-08-31T10:16:49;2.70;;;1.13;;
22164;SDS011;11248;52.512;13.520;2023-08-31T10:19:17;2.53;;;0.98;;
22164;SDS011;11248;52.512;13.520;2023-08-31T10:21:43;1.80;;;0.80;;
22164;SDS011;11248;52.512;13.520;2023-08-31T10:24:09;1.77;;;1.00;;
22164;SDS011;11248;52.512;13.520;2023-08-31T10:26:35;3.25;;;1.00;;
22164;SDS011;11248;52.512;13.520;2023-08-31T10:29:01;2.50;;;1.00;;
22164;SDS011;11248;52.512;13.520;2023-08-31T10:31:31;2.88;;;1.20;;
22164;SDS011;11248;52.512;13.520;2023-08-31T10:33:58;2.00;;;0.93;;
22164;SDS011;11248;52.512;13.520;2023-08-31T10:36:37;2.65;;;1.10;;
22164;SDS011;11248;52.512;13.520;2023-08-31T10:39:14;2.95;;;0.93;;
22164;SDS011;11248;52.512;13.520;2023-08-31T10:41:54;2.50;;;0.98;;
22164;SDS011;11248;52.512;13.520;2023-08-31T10:44:24;1.42;;;0.85;;
22164;SDS011;11248;52.512;13.520;2023-08-31T10:46:50;2.53;;;1.10;;
22164;SDS011;11248;52.512;13.520;2023-08-31T10:49:18;1.35;;;0.82;;
22164;SDS011;11248;52.512;13.520;2023-08-31T10:51:45;2.78;;;1.13;;
22164;SDS011;11248;52.512;13.520;2023-08-31T10:54:13;2.75;;;1.00;;
22164;SDS011;11248;52.512;13.520;2023-08-31T10:56:51;1.40;;;0.65;;
22164;SDS011;11248;52.512;13.520;2023-08-31T10:59:21;1.10;;;0.70;;
22164;SDS011;11248;52.512;13.520;2023-08-31T11:01:59;1.52;;;0.90;;
22164;SDS011;11248;52.512;13.520;2023-08-31T11:04:28;2.35;;;1.00;;
22164;SDS011;11248;52.512;13.520;2023-08-31T11:07:16;3.00;;;1.13;;
22164;SDS011;11248;52.512;13.520;2023-08-31T11:09:43;3.45;;;0.98;;
22164;SDS011;11248;52.512;13.520;2023-08-31T11:12:09;1.38;;;0.90;;
22164;SDS011;11248;52.512;13.520;2023-08-31T11:14:35;2.95;;;1.25;;
22164;SDS011;11248;52.512;13.520;2023-08-31T11:17:01;3.75;;;1.20;;
22164;SDS011;11248;52.512;13.520;2023-08-31T11:19:29;1.58;;;1.15;;
22164;SDS011;11248;52.512;13.520;2023-08-31T11:21:55;3.38;;;1.08;;
22164;SDS011;11248;52.512;13.520;2023-08-31T11:24:21;2.85;;;1.15;;
22164;SDS011;11248;52.512;13.520;2023-08-31T11:26:50;2.28;;;1.30;;
22164;SDS011;11248;52.512;13.520;2023-08-31T11:29:16;3.47;;;1.10;;
22164;SDS011;11248;52.512;13.520;2023-08-31T11:31:42;1.38;;;1.10;;
22164;SDS011;11248;52.512;13.520;2023-08-31T11:34:15;2.95;;;1.30;;
22164;SDS011;11248;52.512;13.520;2023-08-31T11:36:42;2.90;;;1.17;;
22164;SDS011;11248;52.512;13.520;2023-08-31T11:39:11;3.70;;;1.42;;
22164;SDS011;11248;52.512;13.520;2023-08-31T11:41:37;2.42;;;1.35;;
22164;SDS011;11248;52.512;13.520;2023-08-31T11:44:10;3.10;;;1.33;;
22164;SDS011;11248;52.512;13.520;2023-08-31T11:46:37;3.92;;;1.30;;
22164;SDS011;11248;52.512;13.520;2023-08-31T11:49:03;2.25;;;1.30;;
22164;SDS011;11248;52.512;13.520;2023-08-31T11:51:30;1.98;;;1.50;;
22164;SDS011;11248;52.512;13.520;2023-08-31T11:53:57;2.03;;;1.20;;
22164;SDS011;11248;52.512;13.520;2023-08-31T11:56:24;5.13;;;1.30;;
22164;SDS011;11248;52.512;13.520;2023-08-31T11:58:50;1.67;;;1.38;;
22164;SDS011;11248;52.512;13.520;2023-08-31T12:01:20;1.58;;;1.13;;
22164;SDS011;11248;52.512;13.520;2023-08-31T12:03:46;1.77;;;1.25;;
22164;SDS011;11248;52.512;13.520;2023-08-31T12:06:16;2.08;;;1.00;;
22164;SDS011;11248;52.512;13.520;2023-08-31T12:08:43;1.63;;;1.25;;
22164;SDS011;11248;52.512;13.520;2023-08-31T12:11:09;2.47;;;1.33;;
22164;SDS011;11248;52.512;13.520;2023-08-31T12:13:35;3.00;;;1.40;;
22164;SDS011;11248;52.512;13.520;2023-08-31T12:16:01;4.78;;;1.52;;
22164;SDS011;11248;52.512;13.520;2023-08-31T12:18:29;6.75;;;1.60;;
22164;SDS011;11248;52.512;13.520;2023-08-31T12:20:56;6.10;;;1.95;;
22164;SDS011;11248;52.512;13.520;2023-08-31T12:23:23;3.13;;;1.55;;
22164;SDS011;11248;52.512;13.520;2023-08-31T12:25:50;3.63;;;1.50;;
22164;SDS011;11248;52.512;13.520;2023-08-31T12:28:17;3.20;;;1.50;;
22164;SDS011;11248;52.512;13.520;2023-08-31T12:30:46;4.30;;;1.73;;
22164;SDS011;11248;52.512;13.520;2023-08-31T12:33:12;4.45;;;1.75;;
22164;SDS011;11248;52.512;13.520;2023-08-31T12:35:38;1.88;;;1.00;;
22164;SDS011;11248;52.512;13.520;2023-08-31T12:38:04;3.45;;;1.20;;
22164;SDS011;11248;52.512;13.520;2023-08-31T12:40:30;1.60;;;1.10;;
22164;SDS011;11248;52.512;13.520;2023-08-31T12:42:56;2.08;;;1.10;;
22164;SDS011;11248;52.512;13.520;2023-08-31T12:45:22;1.98;;;1.08;;
22164;SDS011;11248;52.512;13.520;2023-08-31T12:47:48;3.90;;;1.65;;
22164;SDS011;11248;52.512;13.520;2023-08-31T12:50:14;1.88;;;1.20;;
22164;SDS011;11248;52.512;13.520;2023-08-31T12:52:40;3.00;;;1.50;;
22164;SDS011;11248;52.512;13.520;2023-08-31T12:55:10;2.38;;;1.40;;
22164;SDS011;11248;52.512;13.520;2023-08-31T12:57:36;4.50;;;1.02;;
22164;SDS011;11248;52.512;13.520;2023-08-31T13:00:02;4.35;;;1.58;;
22164;SDS011;11248;52.512;13.520;2023-08-31T13:02:30;3.25;;;1.60;;
22164;SDS011;11248;52.512;13.520;2023-08-31T13:04:56;1.92;;;1.17;;
22164;SDS011;11248;52.512;13.520;2023-08-31T13:07:22;3.75;;;1.50;;
22164;SDS011;11248;52.512;13.520;2023-08-31T13:09:48;2.25;;;1.00;;
22164;SDS011;11248;52.512;13.520;2023-08-31T13:12:14;4.30;;;1.38;;
22164;SDS011;11248;52.512;13.520;2023-08-31T13:14:40;2.33;;;0.95;;
22164;SDS011;11248;52.512;13.520;2023-08-31T13:17:06;1.77;;;1.00;;
22164;SDS011;11248;52.512;13.520;2023-08-31T13:19:32;1.52;;;0.77;;
22164;SDS011;11248;52.512;13.520;2023-08-31T13:21:58;0.90;;;0.80;;
22164;SDS011;11248;52.512;13.520;2023-08-31T13:24:24;2.42;;;1.27;;
22164;SDS011;11248;52.512;13.520;2023-08-31T13:26:49;1.20;;;1.02;;
22164;SDS011;11248;52.512;13.520;2023-08-31T13:29:15;2.75;;;1.02;;
22164;SDS011;11248;52.512;13.520;2023-08-31T13:31:42;2.78;;;0.90;;
22164;SDS011;11248;52.512;13.520;2023-08-31T13:34:08;1.00;;;0.90;;
22164;SDS011;11248;52.512;13.520;2023-08-31T13:36:35;1.25;;;0.75;;
22164;SDS011;11248;52.512;13.520;2023-08-31T13:39:01;2.20;;;0.95;;
22164;SDS011;11248;52.512;13.520;2023-08-31T13:41:28;1.20;;;0.98;;
22164;SDS011;11248;52.512;13.520;2023-08-31T13:43:55;1.25;;;0.80;;
22164;SDS011;11248;52.512;13.520;2023-08-31T13:46:21;2.00;;;0.90;;
22164;SDS011;11248;52.512;13.520;2023-08-31T13:48:46;4.93;;;1.00;;
22164;SDS011;11248;52.512;13.520;2023-08-31T13:51:13;2.22;;;1.02;;
22164;SDS011;11248;52.512;13.520;2023-08-31T13:53:39;2.05;;;0.95;;
22164;SDS011;11248;52.512;13.520;2023-08-31T13:56:05;0.85;;;0.70;;
22164;SDS011;11248;52.512;13.520;2023-08-31T13:58:31;1.33;;;0.90;;
22164;SDS011;11248;52.512;13.520;2023-08-31T14:00:57;1.10;;;0.80;;
22164;SDS011;11248;52.512;13.520;2023-08-31T14:03:23;1.20;;;1.00;;
22164;SDS011;11248;52.512;13.520;2023-08-31T14:05:49;2.58;;;1.20;;
22164;SDS011;11248;52.512;13.520;2023-08-31T14:08:15;1.50;;;0.93;;
22164;SDS011;11248;52.512;13.520;2023-08-31T14:10:41;1.00;;;1.00;;
22164;SDS011;11248;52.512;13.520;2023-08-31T14:13:07;1.85;;;1.10;;
22164;SDS011;11248;52.512;13.520;2023-08-31T14:15:33;1.27;;;0.90;;
22164;SDS011;11248;52.512;13.520;2023-08-31T14:17:59;1.80;;;1.15;;
22164;SDS011;11248;52.512;13.520;2023-08-31T14:20:24;1.17;;;1.02;;
22164;SDS011;11248;52.512;13.520;2023-08-31T14:22:50;1.23;;;0.90;;
22164;SDS011;11248;52.512;13.520;2023-08-31T14:25:16;1.45;;;0.70;;
22164;SDS011;11248;52.512;13.520;2023-08-31T14:27:42;1.23;;;0.90;;
22164;SDS011;11248;52.512;13.520;2023-08-31T14:30:08;2.00;;;0.90;;
22164;SDS011;11248;52.512;13.520;2023-08-31T14:32:34;4.05;;;0.70;;
22164;SDS011;11248;52.512;13.520;2023-08-31T14:35:00;2.17;;;0.75;;